Time;durP1;ratioP1;P1;durP2;ratioP2;P2;SDS_P1;SDS_P2;PMS_P1;PMS_P2;Temp;Humidity;BMP_temperature;BMP_pressure;BME280_temperature;BME280_humidity;BME280_pressure;Samples;Min_cycle;Max_cycle;Signal;HPM_P1;HPM_P2
2021/07/29 00:00:02;;;;;;;9.70;6.78;;;17.50;94.20;;;;;;4840908;29;20037;-75
2021/07/29 00:02:28;;;;;;;9.15;7.00;;;17.40;95.00;;;;;;4841327;29;20057;-75
2021/07/29 00:04:54;;;;;;;10.45;6.63;;;17.30;96.10;;;;;;4840927;29;20402;-75
2021/07/29 00:07:19;;;;;;;10.60;7.72;;;17.30;97.20;;;;;;4841303;29;20026;-75
2021/07/29 00:09:46;;;;;;;11.30;7.05;;;17.30;98.10;;;;;;4840834;29;20488;-76
2021/07/29 00:12:12;;;;;;;9.20;7.03;;;17.30;99.00;;;;;;4840958;29;20085;-76
2021/07/29 00:14:37;;;;;;;9.52;7.20;;;17.30;99.90;;;;;;4840821;29;20120;-75
2021/07/29 00:17:06;;;;;;;9.25;7.50;;;17.20;99.90;;;;;;4840721;29;20116;-75
2021/07/29 00:19:31;;;;;;;11.15;7.45;;;17.20;99.90;;;;;;4841095;29;20030;-76
2021/07/29 00:21:57;;;;;;;11.23;7.22;;;17.10;99.90;;;;;;4840750;29;20661;-76
2021/07/29 00:24:26;;;;;;;11.15;6.63;;;17.10;99.90;;;;;;4841019;29;20068;-76
2021/07/29 00:26:51;;;;;;;12.40;7.50;;;17.10;99.90;;;;;;4840574;29;20046;-76
2021/07/29 00:29:17;;;;;;;10.48;6.90;;;17.10;99.90;;;;;;4840765;29;20038;-76
2021/07/29 00:31:43;;;;;;;10.05;7.38;;;17.10;99.90;;;;;;4840817;29;20740;-76
2021/07/29 00:34:09;;;;;;;10.43;7.47;;;17.10;99.90;;;;;;4840794;29;20036;-76
2021/07/29 00:36:35;;;;;;;11.05;6.75;;;17.10;99.90;;;;;;4841066;29;20038;-76
2021/07/29 00:39:02;;;;;;;14.80;7.72;;;17.10;99.90;;;;;;4843028;29;20439;-76
2021/07/29 00:41:28;;;;;;;9.30;7.50;;;17.10;99.90;;;;;;4844339;29;20030;-76
2021/07/29 00:44:01;;;;;;;9.38;6.90;;;17.10;99.90;;;;;;4843834;29;20041;-76
2021/07/29 00:46:28;;;;;;;12.43;7.10;;;17.00;99.90;;;;;;4844044;29;20041;-76
2021/07/29 00:48:55;;;;;;;10.00;7.45;;;17.00;99.90;;;;;;4843781;29;20386;-76
2021/07/29 00:51:22;;;;;;;11.13;7.05;;;16.90;99.90;;;;;;4843986;29;20049;-76
2021/07/29 00:53:47;;;;;;;12.18;7.82;;;16.90;99.90;;;;;;4843815;29;20522;-76
2021/07/29 00:56:13;;;;;;;10.05;7.70;;;16.90;99.90;;;;;;4844059;29;20034;-76
2021/07/29 00:58:39;;;;;;;10.27;7.32;;;16.80;99.90;;;;;;4844149;29;20482;-76
2021/07/29 01:01:05;;;;;;;9.80;7.28;;;16.80;99.90;;;;;;4843690;29;20386;-76
2021/07/29 01:03:30;;;;;;;12.45;6.93;;;16.70;99.90;;;;;;4843960;29;20034;-76
2021/07/29 01:05:56;;;;;;;8.75;7.40;;;16.70;99.90;;;;;;4843767;29;20479;-76
2021/07/29 01:08:22;;;;;;;10.13;7.53;;;16.70;99.90;;;;;;4843679;29;20390;-76
2021/07/29 01:10:48;;;;;;;9.90;7.60;;;16.70;99.90;;;;;;4843712;29;20038;-76
2021/07/29 01:13:13;;;;;;;12.48;8.10;;;16.60;99.90;;;;;;4843687;29;20455;-77
2021/07/29 01:15:39;;;;;;;10.55;7.20;;;16.70;99.90;;;;;;4843825;29;20114;-76
2021/07/29 01:47:09;;;;;;;10.70;8.32;;;16.30;99.90;;;;;;4842106;29;20747;-72
2021/07/29 01:49:34;;;;;;;17.27;8.30;;;16.20;99.90;;;;;;4842039;29;20129;-71
2021/07/29 01:52:00;;;;;;;12.07;7.78;;;16.20;99.90;;;;;;4842764;29;20026;-72
2021/07/29 01:54:26;;;;;;;13.05;7.97;;;16.20;99.90;;;;;;4843063;29;20082;-72
2021/07/29 01:56:52;;;;;;;10.50;7.80;;;16.20;99.90;;;;;;4842974;29;20034;-72
2021/07/29 01:59:17;;;;;;;12.55;8.23;;;16.20;99.90;;;;;;4842700;29;20513;-72
2021/07/29 02:01:44;;;;;;;12.60;7.70;;;16.20;99.90;;;;;;4843069;29;20026;-72
2021/07/29 02:04:10;;;;;;;13.45;8.05;;;16.20;99.90;;;;;;4826042;29;20037;-72
2021/07/29 02:06:37;;;;;;;9.95;7.90;;;16.20;99.90;;;;;;4842934;29;20383;-71
2021/07/29 02:09:06;;;;;;;11.20;7.63;;;16.10;99.90;;;;;;4842721;29;20030;-72
2021/07/29 02:11:34;;;;;;;12.32;8.35;;;16.10;99.90;;;;;;4842545;29;20040;-72
2021/07/29 02:14:00;;;;;;;10.63;8.18;;;16.10;99.90;;;;;;4842418;29;20042;-72
2021/07/29 02:16:26;;;;;;;11.52;7.40;;;16.10;99.90;;;;;;4842336;29;20030;-72
2021/07/29 02:18:53;;;;;;;9.57;7.70;;;16.10;99.90;;;;;;4825873;29;20030;-72
2021/07/29 02:21:19;;;;;;;10.13;6.95;;;16.10;99.90;;;;;;4842280;29;20026;-71
2021/07/29 02:23:45;;;;;;;9.75;7.55;;;16.10;99.90;;;;;;4842266;29;20046;-71
2021/07/29 02:26:11;;;;;;;12.05;7.63;;;16.00;99.90;;;;;;4841962;29;20486;-71
2021/07/29 02:28:37;;;;;;;12.60;7.85;;;16.00;99.90;;;;;;4842291;29;20498;-71
2021/07/29 02:31:03;;;;;;;9.50;7.78;;;16.00;99.90;;;;;;4842079;29;20026;-71
2021/07/29 02:33:29;;;;;;;11.02;7.93;;;16.00;99.90;;;;;;4842168;29;20486;-72
2021/07/29 02:35:55;;;;;;;9.85;7.70;;;16.00;99.90;;;;;;4842264;29;20030;-72
2021/07/29 02:38:21;;;;;;;13.38;8.23;;;16.00;99.90;;;;;;4842157;29;20443;-72
2021/07/29 02:40:46;;;;;;;10.75;7.50;;;16.00;99.90;;;;;;4842259;29;20030;-73
2021/07/29 02:43:12;;;;;;;12.30;8.00;;;16.00;99.90;;;;;;4841939;29;20065;-73
2021/07/29 02:45:38;;;;;;;12.60;7.97;;;16.00;99.90;;;;;;4842094;29;20199;-72
2021/07/29 02:48:03;;;;;;;10.93;8.55;;;16.00;99.90;;;;;;4841543;29;20418;-72
2021/07/29 02:50:29;;;;;;;10.30;7.55;;;16.00;99.90;;;;;;4841945;29;20045;-73
2021/07/29 02:52:55;;;;;;;9.52;7.47;;;16.00;99.90;;;;;;4841822;29;20605;-73
2021/07/29 02:55:21;;;;;;;16.00;7.88;;;16.00;99.90;;;;;;4842077;29;20034;-72
2021/07/29 02:57:47;;;;;;;11.55;7.78;;;16.00;99.90;;;;;;4841893;29;20069;-72
2021/07/29 03:00:13;;;;;;;11.88;7.80;;;15.90;99.90;;;;;;4841953;29;20118;-72
2021/07/29 03:02:38;;;;;;;9.95;7.63;;;16.00;99.90;;;;;;4841667;29;20397;-72
2021/07/29 03:05:04;;;;;;;13.93;7.45;;;16.00;99.90;;;;;;4841442;29;20038;-72
2021/07/29 03:07:31;;;;;;;10.27;7.75;;;16.00;99.90;;;;;;4841755;29;20503;-72
2021/07/29 03:09:57;;;;;;;13.52;8.38;;;16.00;99.90;;;;;;4841501;29;20065;-72
2021/07/29 03:12:23;;;;;;;10.70;8.23;;;16.10;99.90;;;;;;4841536;29;20054;-72
2021/07/29 03:14:48;;;;;;;12.93;7.70;;;16.10;99.90;;;;;;4841523;29;20033;-72
2021/07/29 03:17:14;;;;;;;11.30;7.75;;;16.20;99.90;;;;;;4841679;29;20529;-72
2021/07/29 03:19:40;;;;;;;10.95;7.72;;;16.20;99.90;;;;;;4841398;29;20487;-73
2021/07/29 03:22:06;;;;;;;10.68;7.50;;;16.20;99.90;;;;;;4841374;29;20034;-72
2021/07/29 03:24:33;;;;;;;12.30;8.02;;;16.20;99.90;;;;;;4841217;29;20069;-73
2021/07/29 03:26:58;;;;;;;10.43;7.55;;;16.20;99.90;;;;;;4841459;29;20056;-74
2021/07/29 03:29:27;;;;;;;10.35;7.75;;;16.30;99.90;;;;;;4841308;29;20491;-74
2021/07/29 03:31:54;;;;;;;10.65;8.02;;;16.20;99.90;;;;;;4841274;29;20022;-74
2021/07/29 03:34:20;;;;;;;9.90;7.60;;;16.30;99.90;;;;;;4841623;29;20061;-74
2021/07/29 03:36:46;;;;;;;12.15;8.02;;;16.30;99.90;;;;;;4841500;29;20026;-72
2021/07/29 03:39:12;;;;;;;13.98;8.18;;;16.30;99.90;;;;;;4841183;29;20065;-73
2021/07/29 03:41:38;;;;;;;12.27;7.75;;;16.30;99.90;;;;;;4841247;29;20034;-74
2021/07/29 03:44:04;;;;;;;10.27;7.38;;;16.30;99.90;;;;;;4841330;29;20045;-72
2021/07/29 03:46:30;;;;;;;11.27;7.78;;;16.40;99.90;;;;;;4840999;29;20026;-73
2021/07/29 03:48:57;;;;;;;9.27;7.45;;;16.40;99.90;;;;;;4840962;29;20058;-73
2021/07/29 03:51:23;;;;;;;10.75;7.15;;;16.40;99.90;;;;;;4841435;29;20038;-73
2021/07/29 03:53:49;;;;;;;10.75;7.68;;;16.40;99.90;;;;;;4841146;29;20037;-73
2021/07/29 03:56:14;;;;;;;13.45;8.13;;;16.60;99.90;;;;;;4841219;29;20125;-73
2021/07/29 03:58:40;;;;;;;10.77;7.88;;;16.90;99.90;;;;;;4841342;29;20022;-73
2021/07/29 04:01:09;;;;;;;9.93;7.15;;;17.20;99.90;;;;;;4841151;29;20037;-73
2021/07/29 04:03:35;;;;;;;10.57;7.45;;;17.60;99.90;;;;;;4841290;29;20036;-73
2021/07/29 04:06:01;;;;;;;11.55;7.13;;;18.00;99.90;;;;;;4840833;29;20506;-73
2021/07/29 04:08:27;;;;;;;11.50;7.82;;;18.40;99.90;;;;;;4824782;29;20023;-72
2021/07/29 04:10:53;;;;;;;12.60;7.13;;;18.70;99.90;;;;;;4841241;29;20026;-72
2021/07/29 04:13:19;;;;;;;10.77;6.70;;;19.00;99.90;;;;;;4842188;29;20056;-72
2021/07/29 04:15:45;;;;;;;11.60;6.45;;;19.40;99.90;;;;;;4844666;29;20030;-72
2021/07/29 04:18:11;;;;;;;9.88;7.22;;;19.60;99.90;;;;;;4844510;29;20030;-72
2021/07/29 04:20:40;;;;;;;9.50;7.15;;;19.90;99.90;;;;;;4844806;29;20113;-72
2021/07/29 04:23:06;;;;;;;8.70;6.40;;;20.20;99.90;;;;;;4844746;29;20026;-73
2021/07/29 04:25:32;;;;;;;10.18;6.55;;;20.40;99.90;;;;;;4844278;29;20451;-72
2021/07/29 04:27:57;;;;;;;9.32;6.28;;;20.70;99.40;;;;;;4844409;29;20030;-73
2021/07/29 04:30:23;;;;;;;11.18;6.72;;;20.90;98.50;;;;;;4844740;29;20026;-73
2021/07/29 04:32:49;;;;;;;8.07;5.97;;;21.10;98.10;;;;;;4844460;29;20109;-76
2021/07/29 04:35:15;;;;;;;17.73;6.80;;;21.40;97.40;;;;;;4844203;29;20490;-78
2021/07/29 04:37:41;;;;;;;8.55;6.60;;;21.50;96.60;;;;;;4844297;29;20049;-72
2021/07/29 04:40:07;;;;;;;9.63;6.28;;;21.70;96.10;;;;;;4844082;29;20054;-72
2021/07/29 04:42:33;;;;;;;11.13;6.47;;;21.90;95.60;;;;;;4844156;29;20033;-72
2021/07/29 04:44:58;;;;;;;10.15;6.47;;;22.30;94.90;;;;;;4843871;29;20098;-73
2021/07/29 04:47:25;;;;;;;9.35;6.22;;;22.50;94.40;;;;;;4844003;29;20399;-74
2021/07/29 04:49:50;;;;;;;8.13;6.15;;;22.80;93.90;;;;;;4843675;29;20033;-75
2021/07/29 04:52:16;;;;;;;8.35;5.93;;;23.10;93.10;;;;;;4843921;29;20038;-74
2021/07/29 04:54:42;;;;;;;8.68;6.47;;;23.30;92.30;;;;;;4844115;29;20030;-74
2021/07/29 04:57:07;;;;;;;12.70;6.68;;;23.20;92.10;;;;;;4844140;29;20124;-75
2021/07/29 04:59:39;;;;;;;13.55;6.70;;;23.30;92.10;;;;;;4844131;29;20030;-76
2021/07/29 05:02:04;;;;;;;7.78;6.00;;;23.60;91.80;;;;;;4843750;29;20056;-77
2021/07/29 05:04:30;;;;;;;10.30;6.22;;;23.90;90.60;;;;;;4844010;29;20581;-76
2021/07/29 05:06:56;;;;;;;8.50;5.93;;;24.10;90.20;;;;;;4843992;29;20360;-76
2021/07/29 05:09:21;;;;;;;8.25;6.43;;;24.30;89.20;;;;;;4843688;29;20034;-76
2021/07/29 05:11:47;;;;;;;10.15;6.30;;;24.70;87.50;;;;;;4843713;29;20101;-76
2021/07/29 05:14:13;;;;;;;7.53;5.97;;;25.00;85.90;;;;;;4843839;29;20026;-77
2021/07/29 05:16:38;;;;;;;11.68;6.15;;;25.20;84.60;;;;;;4843582;29;20516;-76
2021/07/29 05:19:04;;;;;;;9.63;5.90;;;25.40;82.70;;;;;;4843677;29;20030;-76
2021/07/29 05:21:30;;;;;;;9.65;5.78;;;25.50;81.20;;;;;;4843464;29;20108;-77
2021/07/29 05:23:56;;;;;;;6.82;5.43;;;25.60;81.20;;;;;;4843288;29;20034;-76
2021/07/29 05:26:22;;;;;;;7.60;5.50;;;25.80;80.30;;;;;;4843406;29;20133;-76
2021/07/29 05:28:47;;;;;;;10.85;5.85;;;26.00;79.40;;;;;;4843744;29;20497;-76
2021/07/29 05:31:13;;;;;;;11.25;5.93;;;26.30;77.90;;;;;;4843148;29;20030;-76
2021/07/29 05:33:40;;;;;;;9.13;5.50;;;26.50;76.90;;;;;;4843283;29;20079;-76
2021/07/29 05:36:06;;;;;;;7.38;5.38;;;26.80;75.60;;;;;;4843336;29;20044;-76
2021/07/29 05:38:34;;;;;;;10.77;5.60;;;26.90;74.60;;;;;;4843156;29;20563;-76
2021/07/29 05:41:07;;;;;;;7.25;5.07;;;27.20;72.30;;;;;;4843273;29;20154;-75
2021/07/29 05:43:37;;;;;;;7.60;5.65;;;27.40;71.80;;;;;;4843054;29;20498;-76
2021/07/29 05:46:10;;;;;;;11.73;5.68;;;27.70;71.00;;;;;;4843164;29;20030;-76
2021/07/29 05:48:36;;;;;;;7.65;5.43;;;28.00;69.70;;;;;;4843026;29;20057;-75
2021/07/29 05:51:03;;;;;;;9.13;5.70;;;28.20;68.60;;;;;;4843150;29;20030;-82
2021/07/29 05:53:28;;;;;;;8.93;5.97;;;28.20;68.00;;;;;;4843399;29;20390;-77
2021/07/29 05:55:54;;;;;;;10.02;5.65;;;28.20;67.10;;;;;;4842903;29;20030;-79
2021/07/29 05:58:20;;;;;;;14.88;5.57;;;28.30;66.50;;;;;;4842933;29;20045;-79
2021/07/29 06:00:46;;;;;;;10.32;5.70;;;28.40;65.90;;;;;;4842897;29;20026;-79
2021/07/29 06:03:12;;;;;;;12.07;5.80;;;28.60;64.90;;;;;;4842680;29;20034;-79
2021/07/29 06:05:37;;;;;;;8.18;5.40;;;28.90;64.90;;;;;;4842707;29;20065;-76
2021/07/29 06:08:03;;;;;;;10.65;5.32;;;29.00;64.30;;;;;;4842572;29;20034;-76
2021/07/29 06:10:29;;;;;;;8.15;5.75;;;29.00;63.60;;;;;;4842814;29;20115;-75
2021/07/29 06:12:55;;;;;;;9.75;5.65;;;28.90;63.30;;;;;;4842866;29;20482;-72
2021/07/29 06:15:21;;;;;;;8.20;5.45;;;28.90;63.00;;;;;;4842569;29;20397;-78
2021/07/29 06:17:52;;;;;;;10.48;5.20;;;29.00;63.00;;;;;;4842497;29;20106;-78
2021/07/29 06:20:18;;;;;;;17.55;5.97;;;29.00;62.40;;;;;;4842289;29;20094;-78
2021/07/29 06:22:44;;;;;;;6.78;4.97;;;29.10;61.20;;;;;;4842441;29;20026;-78
2021/07/29 06:25:11;;;;;;;14.25;6.05;;;29.20;60.70;;;;;;4842332;29;20046;-78
2021/07/29 06:27:37;;;;;;;8.55;5.95;;;29.20;60.00;;;;;;4842386;29;20082;-77
2021/07/29 06:30:06;;;;;;;11.85;6.53;;;29.30;59.30;;;;;;4842231;29;20038;-78
2021/07/29 06:32:32;;;;;;;13.65;6.63;;;29.30;57.70;;;;;;4842227;29;20041;-78
2021/07/29 06:34:58;;;;;;;12.40;6.97;;;29.40;59.00;;;;;;4842136;29;20037;-78
2021/07/29 06:37:24;;;;;;;14.32;5.85;;;29.40;58.00;;;;;;4841550;29;20033;-78
2021/07/29 06:39:50;;;;;;;20.40;8.88;;;29.50;59.30;;;;;;4842435;29;20055;-77
2021/07/29 06:42:15;;;;;;;24.10;9.90;;;29.50;57.20;;;;;;4841948;29;20073;-76
2021/07/29 06:44:41;;;;;;;11.40;6.63;;;29.50;55.70;;;;;;4841841;29;20106;-78
2021/07/29 06:47:20;;;;;;;16.48;4.47;;;29.50;56.80;;;;;;4842504;29;20034;-77
2021/07/29 06:49:46;;;;;;;6.63;4.07;;;29.50;53.60;;;;;;4860740;29;20045;-79
2021/07/29 06:52:12;;;;;;;16.50;4.07;;;29.50;51.90;;;;;;4860248;29;20512;-77
2021/07/29 06:54:39;;;;;;;9.13;4.13;;;29.30;51.10;;;;;;4860281;29;20041;-77
2021/07/29 06:57:08;;;;;;;10.07;4.15;;;29.30;50.60;;;;;;4860342;29;20036;-77
2021/07/29 06:59:35;;;;;;;8.68;4.05;;;29.20;50.30;;;;;;4860253;29;20085;-78
2021/07/29 07:02:01;;;;;;;8.07;3.55;;;29.00;50.80;;;;;;4860290;29;20033;-78
2021/07/29 07:04:27;;;;;;;7.13;3.97;;;29.00;50.80;;;;;;4859977;29;20048;-78
2021/07/29 07:06:53;;;;;;;4.43;3.63;;;29.00;49.90;;;;;;4860399;29;20029;-78
2021/07/29 07:09:19;;;;;;;5.85;4.28;;;28.80;49.90;;;;;;4860093;29;20033;-78
2021/07/29 07:11:45;;;;;;;6.20;4.30;;;28.90;49.90;;;;;;4860262;29;20021;-77
2021/07/29 07:14:10;;;;;;;13.25;4.32;;;28.80;49.80;;;;;;4859830;29;20446;-77
2021/07/29 07:16:37;;;;;;;11.60;5.10;;;28.80;49.90;;;;;;4857344;29;20032;-76
2021/07/29 07:19:05;;;;;;;11.23;5.80;;;28.90;50.00;;;;;;4860271;29;20117;-75
2021/07/29 07:21:31;;;;;;;9.57;4.00;;;29.00;50.30;;;;;;4860318;29;20044;-75
2021/07/29 07:23:57;;;;;;;6.20;4.28;;;29.10;49.30;;;;;;4849512;29;20057;-77
2021/07/29 07:26:24;;;;;;;10.80;4.22;;;28.90;49.30;;;;;;4841247;29;20490;-77
2021/07/29 07:28:51;;;;;;;10.38;3.42;;;28.80;49.80;;;;;;4841547;29;20117;-76
2021/07/29 07:31:17;;;;;;;6.90;4.50;;;28.90;48.70;;;;;;4844035;29;20379;-73
2021/07/29 07:33:44;;;;;;;6.07;3.40;;;28.90;49.00;;;;;;4857517;29;20029;-73
2021/07/29 07:36:10;;;;;;;6.07;3.95;;;28.90;48.10;;;;;;4855225;29;20033;-78
2021/07/29 07:38:36;;;;;;;4.63;3.42;;;28.80;47.90;;;;;;4859978;29;20036;-87
2021/07/29 07:41:05;;;;;;;8.85;3.47;;;28.80;48.10;;;;;;4860631;29;20025;-87
2021/07/29 07:43:32;;;;;;;10.82;3.28;;;28.80;47.30;;;;;;4860164;29;20481;-86
2021/07/29 07:45:57;;;;;;;5.07;3.55;;;28.80;46.80;;;;;;4859762;29;20037;-78
2021/07/29 07:48:25;;;;;;;12.25;3.83;;;28.80;46.10;;;;;;4861066;29;20049;-78
2021/07/29 07:50:53;;;;;;;5.22;3.05;;;28.70;45.80;;;;;;4854896;29;20030;-78
2021/07/29 07:53:22;;;;;;;5.45;3.60;;;28.60;45.60;;;;;;4852582;29;20533;-78
2021/07/29 07:55:48;;;;;;;7.18;3.50;;;28.60;46.70;;;;;;4852862;29;20026;-77
2021/07/29 07:58:14;;;;;;;7.13;3.17;;;28.50;45.00;;;;;;4853697;29;20393;-77
2021/07/29 08:00:40;;;;;;;7.80;3.92;;;28.20;45.60;;;;;;4857001;29;20108;-77
2021/07/29 08:03:05;;;;;;;10.10;3.60;;;28.10;46.60;;;;;;4863377;29;20037;-78
2021/07/29 08:05:31;;;;;;;7.97;3.70;;;28.00;47.30;;;;;;4863163;29;20037;-78
2021/07/29 08:07:57;;;;;;;10.18;3.83;;;27.90;47.50;;;;;;4863452;29;20029;-77
2021/07/29 08:10:23;;;;;;;19.38;3.60;;;27.80;47.30;;;;;;4863249;29;20036;-80
2021/07/29 08:12:49;;;;;;;40.40;5.03;;;27.80;46.80;;;;;;4863207;29;20481;-80
2021/07/29 08:15:14;;;;;;;12.40;3.92;;;27.90;46.70;;;;;;4862966;29;20038;-83
2021/07/29 08:17:40;;;;;;;6.57;3.70;;;27.80;47.00;;;;;;4863107;29;20022;-75
2021/07/29 08:20:07;;;;;;;19.80;4.50;;;27.70;46.70;;;;;;4863355;29;20033;-77
2021/07/29 08:22:32;;;;;;;6.00;3.40;;;27.70;47.70;;;;;;4863268;29;20423;-77
2021/07/29 08:24:58;;;;;;;6.57;3.97;;;27.70;47.00;;;;;;4862777;29;20049;-77
2021/07/29 08:27:24;;;;;;;10.38;3.83;;;27.70;46.90;;;;;;4863092;29;20081;-77
2021/07/29 08:29:50;;;;;;;6.68;3.67;;;27.60;47.40;;;;;;4863271;29;20026;-77
2021/07/29 08:32:15;;;;;;;4.00;3.25;;;27.60;47.10;;;;;;4862932;29;20532;-77
2021/07/29 08:34:41;;;;;;;5.38;3.70;;;27.60;46.60;;;;;;4863029;29;20048;-76
2021/07/29 08:37:07;;;;;;;11.75;4.03;;;27.40;47.10;;;;;;4862693;29;20025;-76
2021/07/29 08:39:32;;;;;;;24.83;4.25;;;27.20;47.10;;;;;;4862612;29;20036;-77
2021/07/29 08:41:58;;;;;;;6.30;3.55;;;27.20;47.40;;;;;;4862914;29;20041;-77
2021/07/29 08:44:24;;;;;;;7.03;3.33;;;27.10;47.10;;;;;;4862701;29;20048;-77
2021/07/29 08:46:50;;;;;;;9.25;4.20;;;27.20;47.90;;;;;;4862848;29;20389;-76
2021/07/29 08:49:16;;;;;;;7.72;3.13;;;27.20;47.00;;;;;;4862422;29;20049;-76
2021/07/29 08:51:41;;;;;;;21.80;3.88;;;27.20;46.80;;;;;;4862635;29;20030;-76
2021/07/29 08:54:14;;;;;;;16.17;3.88;;;27.10;46.10;;;;;;4862689;29;20050;-76
2021/07/29 08:56:40;;;;;;;7.07;3.42;;;26.90;46.40;;;;;;4862821;29;20088;-76
2021/07/29 08:59:07;;;;;;;18.92;4.22;;;26.90;47.00;;;;;;4861941;29;20409;-76
2021/07/29 09:01:39;;;;;;;5.80;3.25;;;26.80;46.50;;;;;;4862502;29;20056;-77
2021/07/29 09:04:13;;;;;;;6.93;3.42;;;26.70;47.00;;;;;;4862473;29;20052;-77
2021/07/29 09:06:59;;;;;;;15.02;4.07;;;26.70;47.20;;;;;;4862429;29;20030;-77
2021/07/29 09:09:39;;;;;;;10.75;3.40;;;26.50;46.60;;;;;;4862383;29;20112;-77
2021/07/29 09:12:18;;;;;;;9.10;3.90;;;26.50;47.30;;;;;;4861996;29;20040;-76
2021/07/29 09:14:45;;;;;;;6.65;4.32;;;26.50;48.30;;;;;;4862158;29;20057;-76
2021/07/29 09:17:11;;;;;;;6.55;3.92;;;26.30;49.00;;;;;;4862181;29;20036;-78
2021/07/29 09:19:47;;;;;;;8.25;4.45;;;26.20;49.30;;;;;;4862435;29;20382;-78
2021/07/29 09:22:25;;;;;;;10.38;4.47;;;26.20;50.50;;;;;;4861811;29;20037;-77
2021/07/29 09:24:55;;;;;;;34.38;4.93;;;26.10;50.90;;;;;;4862017;29;20124;-76
2021/07/29 09:27:21;;;;;;;15.07;4.47;;;26.10;51.90;;;;;;4861662;29;20029;-85
2021/07/29 09:29:47;;;;;;;13.07;4.72;;;26.00;52.60;;;;;;4864533;29;20109;-84
2021/07/29 09:32:15;;;;;;;7.72;4.93;;;25.90;53.40;;;;;;4862545;29;20067;-84
2021/07/29 09:34:49;;;;;;;6.63;5.40;;;25.70;54.30;;;;;;4861874;29;20105;-84
2021/07/29 09:37:17;;;;;;;31.67;6.93;;;25.60;55.80;;;;;;4861619;29;20061;-85
2021/07/29 09:39:44;;;;;;;17.08;6.38;;;25.50;56.80;;;;;;4861669;29;20036;-84
2021/07/29 09:42:17;;;;;;;9.60;6.13;;;25.60;57.50;;;;;;4861572;29;20038;-83
2021/07/29 09:44:45;;;;;;;80.57;8.85;;;25.50;57.90;;;;;;4861780;29;20150;-85
2021/07/29 09:47:11;;;;;;;13.07;6.70;;;25.40;58.40;;;;;;4861503;29;20032;-84
2021/07/29 09:49:38;;;;;;;25.60;6.80;;;25.30;59.60;;;;;;4861616;29;20393;-84
2021/07/29 09:52:04;;;;;;;11.20;6.82;;;25.20;61.30;;;;;;4861686;29;20040;-83
2021/07/29 09:54:30;;;;;;;12.32;7.30;;;25.10;63.30;;;;;;4861690;29;20038;-82
2021/07/29 09:56:56;;;;;;;13.95;7.03;;;25.00;63.10;;;;;;4861495;29;20032;-86
2021/07/29 09:59:22;;;;;;;12.65;7.45;;;24.70;65.10;;;;;;4861218;29;20489;-79
2021/07/29 10:01:50;;;;;;;11.65;7.18;;;24.50;66.50;;;;;;4861153;29;20038;-80
2021/07/29 10:04:23;;;;;;;13.83;7.57;;;24.50;67.40;;;;;;4861246;29;20044;-81
2021/07/29 10:06:51;;;;;;;12.65;6.90;;;24.60;68.80;;;;;;4861437;29;20057;-81
2021/07/29 10:09:19;;;;;;;15.57;7.47;;;24.50;69.30;;;;;;4861011;29;20029;-81
2021/07/29 10:11:50;;;;;;;54.92;9.88;;;24.40;69.60;;;;;;4860287;29;20033;-79
2021/07/29 10:14:48;;;;;;;10.30;7.13;;;24.30;70.60;;;;;;4861360;29;20037;-80
2021/07/29 10:17:14;;;;;;;16.05;7.13;;;24.30;71.00;;;;;;4861082;29;20034;-81
2021/07/29 10:20:07;;;;;;;18.45;7.20;;;24.20;69.80;;;;;;4861203;29;20116;-81
2021/07/29 10:22:33;;;;;;;12.88;7.53;;;24.20;69.60;;;;;;4860714;29;20398;-80
2021/07/29 10:24:59;;;;;;;8.48;6.53;;;24.20;69.90;;;;;;4860908;29;20053;-81
2021/07/29 10:27:24;;;;;;;14.02;7.07;;;24.30;70.40;;;;;;4860642;29;20389;-81
2021/07/29 10:29:50;;;;;;;8.52;6.65;;;24.40;70.20;;;;;;4860776;29;20124;-81
2021/07/29 10:33:05;;;;;;;31.90;8.13;;;24.30;69.80;;;;;;4860921;29;20105;-82
2021/07/29 10:35:31;;;;;;;11.60;7.07;;;24.30;70.50;;;;;;4852231;29;20041;-81
2021/07/29 10:37:58;;;;;;;12.52;7.90;;;24.10;71.40;;;;;;4860461;29;20090;-80
2021/07/29 10:40:42;;;;;;;27.23;8.10;;;24.20;72.70;;;;;;4860710;29;20045;-79
2021/07/29 10:43:29;;;;;;;17.17;7.45;;;24.30;72.90;;;;;;4860774;29;20037;-79
2021/07/29 10:45:56;;;;;;;9.80;7.18;;;24.40;73.50;;;;;;4860388;29;20064;-79
2021/07/29 10:48:41;;;;;;;35.00;8.70;;;24.50;73.00;;;;;;4860169;29;20050;-79
2021/07/29 10:51:22;;;;;;;13.82;7.40;;;24.50;73.60;;;;;;4860589;29;20458;-80
2021/07/29 10:53:50;;;;;;;18.15;7.78;;;24.50;73.00;;;;;;4860625;29;20031;-84
2021/07/29 10:56:20;;;;;;;11.07;7.45;;;24.50;73.90;;;;;;4860322;29;20036;-82
2021/07/29 10:58:53;;;;;;;12.20;8.15;;;24.40;74.20;;;;;;4860532;29;20029;-82
2021/07/29 11:01:19;;;;;;;11.40;8.18;;;24.30;75.10;;;;;;4860431;29;20029;-82
2021/07/29 11:03:54;;;;;;;12.27;8.20;;;24.30;75.80;;;;;;4860121;29;20478;-81
2021/07/29 11:06:42;;;;;;;9.52;7.90;;;24.40;76.30;;;;;;4860030;29;20038;-81
2021/07/29 11:09:14;;;;;;;14.57;8.57;;;24.40;77.90;;;;;;4860157;29;20147;-82
2021/07/29 11:11:42;;;;;;;11.25;7.97;;;24.40;78.20;;;;;;4859953;29;20485;-80
2021/07/29 11:14:08;;;;;;;17.88;8.93;;;24.40;78.90;;;;;;4858751;29;20501;-75
2021/07/29 11:16:35;;;;;;;13.80;9.05;;;24.20;80.20;;;;;;4860039;29;20033;-77
2021/07/29 11:19:03;;;;;;;18.15;9.35;;;24.20;81.50;;;;;;4860353;29;20036;-77
2021/07/29 11:21:29;;;;;;;14.55;10.07;;;24.20;81.90;;;;;;4859624;29;20029;-77
2021/07/29 11:23:55;;;;;;;10.93;8.95;;;24.00;82.90;;;;;;4860169;29;20033;-77
2021/07/29 11:26:21;;;;;;;12.38;9.00;;;23.90;84.30;;;;;;4860054;29;20056;-78
2021/07/29 11:29:09;;;;;;;14.07;10.60;;;23.90;84.40;;;;;;4859994;29;20106;-78
2021/07/29 11:31:36;;;;;;;14.60;9.18;;;23.70;86.30;;;;;;4860055;29;20061;-78
2021/07/29 11:34:03;;;;;;;13.77;9.27;;;23.70;86.40;;;;;;4860306;29;20056;-77
2021/07/29 11:36:29;;;;;;;14.75;9.57;;;23.80;86.20;;;;;;4859873;29;20033;-77
2021/07/29 11:39:00;;;;;;;15.35;9.30;;;23.70;85.50;;;;;;4860010;29;20037;-78
2021/07/29 11:41:27;;;;;;;10.38;8.27;;;23.60;85.60;;;;;;4859899;29;20025;-81
2021/07/29 11:43:55;;;;;;;14.77;9.10;;;23.50;86.10;;;;;;4859594;29;20086;-81
2021/07/29 11:46:21;;;;;;;14.10;9.00;;;23.30;86.40;;;;;;4859889;29;20044;-78
2021/07/29 11:48:59;;;;;;;24.13;9.43;;;23.20;87.50;;;;;;4859604;29;20045;-80
2021/07/29 11:51:25;;;;;;;12.90;8.20;;;23.20;87.70;;;;;;4859878;29;20082;-80
2021/07/29 11:53:50;;;;;;;12.50;8.88;;;23.30;87.30;;;;;;4859666;29;20022;-81
2021/07/29 11:56:17;;;;;;;11.73;8.77;;;23.20;87.80;;;;;;4859852;29;20034;-81
2021/07/29 11:58:57;;;;;;;12.55;8.70;;;23.20;87.50;;;;;;4859620;29;20029;-81
2021/07/29 12:01:23;;;;;;;12.50;8.45;;;23.20;88.50;;;;;;4859416;29;20063;-80
2021/07/29 12:03:51;;;;;;;12.93;8.63;;;23.20;87.80;;;;;;4859602;29;20038;-81
2021/07/29 12:06:17;;;;;;;10.95;8.20;;;23.20;88.30;;;;;;4859783;29;20158;-81
2021/07/29 12:08:46;;;;;;;11.77;8.23;;;23.20;88.60;;;;;;4859671;29;20030;-80
2021/07/29 12:11:14;;;;;;;11.45;9.07;;;23.20;89.80;;;;;;4859460;29;20036;-80
2021/07/29 12:13:44;;;;;;;11.23;7.65;;;23.20;89.10;;;;;;4859301;29;20116;-80
2021/07/29 12:16:10;;;;;;;12.00;8.02;;;23.20;90.00;;;;;;4859632;29;20489;-81
2021/07/29 12:18:36;;;;;;;9.60;7.32;;;23.40;89.80;;;;;;4859380;29;20025;-81
2021/07/29 12:21:03;;;;;;;9.30;7.57;;;23.40;89.40;;;;;;4859713;29;20040;-82
2021/07/29 12:23:29;;;;;;;17.80;7.80;;;23.30;89.70;;;;;;4859491;29;20068;-82
2021/07/29 12:26:09;;;;;;;16.80;8.48;;;23.30;90.00;;;;;;4859678;29;20458;-80
2021/07/29 12:28:45;;;;;;;;;;;23.30;90.10;;;;;;4859665;29;20451;-81
2021/07/29 12:31:25;;;;;;;8.80;7.75;;;23.30;90.40;;;;;;4859439;29;20349;-80
2021/07/29 12:33:57;;;;;;;9.90;7.18;;;23.30;90.20;;;;;;4860278;29;20048;-83
2021/07/29 12:36:24;;;;;;;13.20;7.57;;;23.30;90.00;;;;;;4862892;29;20447;-83
2021/07/29 12:39:03;;;;;;;9.23;7.43;;;23.30;90.20;;;;;;4862680;29;20061;-78
2021/07/29 12:41:40;;;;;;;11.65;7.90;;;23.30;90.90;;;;;;4862515;29;20082;-78
2021/07/29 12:44:19;;;;;;;9.52;7.40;;;23.40;90.60;;;;;;4862738;29;20490;-84
2021/07/29 12:46:47;;;;;;;12.65;7.13;;;23.50;90.30;;;;;;4862880;29;20042;-82
2021/07/29 12:49:14;;;;;;;8.75;7.10;;;23.50;90.30;;;;;;4862411;29;20081;-81
2021/07/29 12:51:51;;;;;;;13.68;7.38;;;23.50;90.00;;;;;;4862387;29;20045;-81
2021/07/29 12:54:19;;;;;;;12.68;6.97;;;23.40;90.20;;;;;;4862964;29;20032;-83
2021/07/29 12:57:03;;;;;;;28.55;7.68;;;23.40;90.20;;;;;;4862363;29;20497;-81
2021/07/29 12:59:28;;;;;;;10.48;7.07;;;23.30;90.30;;;;;;4862481;29;20040;-83
2021/07/29 13:01:54;;;;;;;19.98;7.00;;;23.30;90.20;;;;;;4862688;29;20026;-82
2021/07/29 13:04:23;;;;;;;9.25;6.88;;;23.20;90.30;;;;;;4862140;29;20098;-82
2021/07/29 13:06:49;;;;;;;9.18;6.68;;;23.30;90.40;;;;;;4862515;29;20033;-80
2021/07/29 13:09:15;;;;;;;9.40;6.75;;;23.30;90.30;;;;;;4862206;29;20148;-83
2021/07/29 13:11:42;;;;;;;12.32;6.13;;;23.40;90.30;;;;;;4862188;29;20140;-81